sensor_id;sensor_type;location;lat;lon;timestamp;P1;durP1;ratioP1;P2;durP2;ratioP2
36099;SDS011;75757;51.116;17.008;2024-01-15T12:11:51;12.68;;;2.67;;
36099;SDS011;75757;51.116;17.008;2024-01-15T12:14:20;12.95;;;2.67;;
36099;SDS011;75757;51.116;17.008;2024-01-15T12:16:46;12.90;;;2.13;;
36099;SDS011;75757;51.116;17.008;2024-01-15T12:19:13;19.83;;;3.35;;
36099;SDS011;75757;51.116;17.008;2024-01-15T12:21:44;23.98;;;2.97;;
36099;SDS011;75757;51.116;17.008;2024-01-15T12:24:10;17.42;;;2.60;;
36099;SDS011;75757;51.116;17.008;2024-01-15T12:26:36;20.25;;;2.33;;
36099;SDS011;75757;51.116;17.008;2024-01-15T12:29:07;29.92;;;3.10;;
36099;SDS011;75757;51.116;17.008;2024-01-15T12:31:34;18.23;;;3.35;;
36099;SDS011;75757;51.116;17.008;2024-01-15T12:34:01;24.77;;;3.10;;
36099;SDS011;75757;51.116;17.008;2024-01-15T12:36:30;22.75;;;2.88;;
36099;SDS011;75757;51.116;17.008;2024-01-15T12:38:59;19.40;;;2.70;;
36099;SDS011;75757;51.116;17.008;2024-01-15T12:41:24;26.27;;;2.80;;
36099;SDS011;75757;51.116;17.008;2024-01-15T12:44:01;19.88;;;2.88;;
36099;SDS011;75757;51.116;17.008;2024-01-15T12:46:28;14.93;;;2.63;;
36099;SDS011;75757;51.116;17.008;2024-01-15T12:48:55;17.27;;;3.17;;
36099;SDS011;75757;51.116;17.008;2024-01-15T12:51:24;17.33;;;2.72;;
36099;SDS011;75757;51.116;17.008;2024-01-15T12:53:50;16.02;;;2.55;;
36099;SDS011;75757;51.116;17.008;2024-01-15T12:56:16;15.88;;;3.13;;
36099;SDS011;75757;51.116;17.008;2024-01-15T12:58:42;17.73;;;2.60;;
36099;SDS011;75757;51.116;17.008;2024-01-15T13:01:10;15.57;;;2.55;;
36099;SDS011;75757;51.116;17.008;2024-01-15T13:03:37;8.68;;;2.78;;
36099;SDS011;75757;51.116;17.008;2024-01-15T13:06:03;26.27;;;3.00;;
36099;SDS011;75757;51.116;17.008;2024-01-15T13:08:29;11.25;;;2.80;;
36099;SDS011;75757;51.116;17.008;2024-01-15T13:10:55;8.73;;;2.35;;
36099;SDS011;75757;51.116;17.008;2024-01-15T13:13:22;11.40;;;3.10;;
36099;SDS011;75757;51.116;17.008;2024-01-15T13:15:48;8.35;;;2.42;;
36099;SDS011;75757;51.116;17.008;2024-01-15T13:18:14;10.60;;;2.35;;
36099;SDS011;75757;51.116;17.008;2024-01-15T13:20:41;10.70;;;2.40;;
36099;SDS011;75757;51.116;17.008;2024-01-15T13:23:07;10.68;;;2.55;;
36099;SDS011;75757;51.116;17.008;2024-01-15T13:25:33;12.40;;;2.33;;
36099;SDS011;75757;51.116;17.008;2024-01-15T13:28:00;13.10;;;2.38;;
36099;SDS011;75757;51.116;17.008;2024-01-15T13:30:27;9.60;;;2.33;;
36099;SDS011;75757;51.116;17.008;2024-01-15T13:32:53;7.97;;;1.83;;
36099;SDS011;75757;51.116;17.008;2024-01-15T13:35:21;11.18;;;2.33;;
36099;SDS011;75757;51.116;17.008;2024-01-15T13:37:47;11.77;;;2.20;;
36099;SDS011;75757;51.116;17.008;2024-01-15T13:40:13;23.33;;;3.50;;
36099;SDS011;75757;51.116;17.008;2024-01-15T13:42:45;12.27;;;2.25;;
36099;SDS011;75757;51.116;17.008;2024-01-15T13:45:12;15.98;;;2.65;;
36099;SDS011;75757;51.116;17.008;2024-01-15T13:50:08;20.92;;;2.72;;
36099;SDS011;75757;51.116;17.008;2024-01-15T13:52:34;30.00;;;3.33;;
36099;SDS011;75757;51.116;17.008;2024-01-15T13:55:01;15.10;;;2.33;;
36099;SDS011;75757;51.116;17.008;2024-01-15T13:57:28;11.45;;;1.90;;
36099;SDS011;75757;51.116;17.008;2024-01-15T13:59:54;24.05;;;3.00;;
36099;SDS011;75757;51.116;17.008;2024-01-15T14:02:20;15.60;;;2.63;;
36099;SDS011;75757;51.116;17.008;2024-01-15T14:04:47;12.02;;;2.42;;
36099;SDS011;75757;51.116;17.008;2024-01-15T14:07:13;15.07;;;2.47;;
36099;SDS011;75757;51.116;17.008;2024-01-15T14:09:40;13.15;;;2.45;;
36099;SDS011;75757;51.116;17.008;2024-01-15T14:12:07;6.55;;;2.25;;
36099;SDS011;75757;51.116;17.008;2024-01-15T14:14:33;13.10;;;2.28;;
36099;SDS011;75757;51.116;17.008;2024-01-15T14:16:58;8.52;;;2.38;;
36099;SDS011;75757;51.116;17.008;2024-01-15T14:19:25;9.57;;;2.33;;
36099;SDS011;75757;51.116;17.008;2024-01-15T14:21:50;13.02;;;2.42;;
36099;SDS011;75757;51.116;17.008;2024-01-15T14:24:16;9.40;;;2.08;;
36099;SDS011;75757;51.116;17.008;2024-01-15T14:26:43;12.45;;;2.42;;
36099;SDS011;75757;51.116;17.008;2024-01-15T14:29:10;8.05;;;1.63;;
36099;SDS011;75757;51.116;17.008;2024-01-15T14:31:36;8.68;;;1.90;;
36099;SDS011;75757;51.116;17.008;2024-01-15T14:34:02;8.75;;;1.75;;
36099;SDS011;75757;51.116;17.008;2024-01-15T14:36:28;7.18;;;1.92;;
36099;SDS011;75757;51.116;17.008;2024-01-15T14:38:54;7.65;;;2.00;;
36099;SDS011;75757;51.116;17.008;2024-01-15T14:41:20;10.98;;;2.03;;
36099;SDS011;75757;51.116;17.008;2024-01-15T14:43:46;8.43;;;2.10;;
36099;SDS011;75757;51.116;17.008;2024-01-15T14:46:12;7.15;;;1.80;;
36099;SDS011;75757;51.116;17.008;2024-01-15T14:48:38;7.35;;;2.28;;
36099;SDS011;75757;51.116;17.008;2024-01-15T14:51:05;10.43;;;2.60;;
36099;SDS011;75757;51.116;17.008;2024-01-15T14:53:32;8.02;;;1.80;;
36099;SDS011;75757;51.116;17.008;2024-01-15T14:56:00;11.25;;;2.00;;
36099;SDS011;75757;51.116;17.008;2024-01-15T14:58:27;12.18;;;2.53;;
36099;SDS011;75757;51.116;17.008;2024-01-15T15:00:53;9.35;;;1.90;;
36099;SDS011;75757;51.116;17.008;2024-01-15T15:03:22;10.13;;;1.95;;
36099;SDS011;75757;51.116;17.008;2024-01-15T15:05:47;12.65;;;2.67;;
36099;SDS011;75757;51.116;17.008;2024-01-15T15:08:13;11.98;;;2.50;;
36099;SDS011;75757;51.116;17.008;2024-01-15T15:10:39;13.13;;;2.15;;
36099;SDS011;75757;51.116;17.008;2024-01-15T15:13:06;9.45;;;1.92;;
36099;SDS011;75757;51.116;17.008;2024-01-15T15:15:32;9.93;;;1.83;;
36099;SDS011;75757;51.116;17.008;2024-01-15T15:17:58;7.72;;;1.88;;
36099;SDS011;75757;51.116;17.008;2024-01-15T15:20:24;7.00;;;2.03;;
36099;SDS011;75757;51.116;17.008;2024-01-15T15:22:50;12.02;;;1.98;;
36099;SDS011;75757;51.116;17.008;2024-01-15T15:25:20;17.30;;;2.50;;
36099;SDS011;75757;51.116;17.008;2024-01-15T15:27:46;13.98;;;2.15;;
36099;SDS011;75757;51.116;17.008;2024-01-15T15:30:12;12.90;;;2.90;;
36099;SDS011;75757;51.116;17.008;2024-01-15T15:32:38;18.65;;;2.40;;
36099;SDS011;75757;51.116;17.008;2024-01-15T15:35:04;14.15;;;2.47;;
36099;SDS011;75757;51.116;17.008;2024-01-15T15:37:31;14.60;;;2.58;;
36099;SDS011;75757;51.116;17.008;2024-01-15T15:39:57;12.10;;;1.98;;
36099;SDS011;75757;51.116;17.008;2024-01-15T15:42:24;12.73;;;2.42;;
36099;SDS011;75757;51.116;17.008;2024-01-15T15:44:50;15.02;;;2.50;;
36099;SDS011;75757;51.116;17.008;2024-01-15T15:47:18;11.05;;;2.50;;
36099;SDS011;75757;51.116;17.008;2024-01-15T15:49:44;10.77;;;2.45;;
36099;SDS011;75757;51.116;17.008;2024-01-15T15:52:10;16.67;;;2.00;;
36099;SDS011;75757;51.116;17.008;2024-01-15T15:54:36;11.43;;;2.08;;
36099;SDS011;75757;51.116;17.008;2024-01-15T15:57:02;9.27;;;1.90;;
36099;SDS011;75757;51.116;17.008;2024-01-15T15:59:28;10.63;;;1.88;;
36099;SDS011;75757;51.116;17.008;2024-01-15T16:01:55;9.85;;;1.90;;
36099;SDS011;75757;51.116;17.008;2024-01-15T16:04:22;8.98;;;1.75;;
36099;SDS011;75757;51.116;17.008;2024-01-15T16:06:50;13.43;;;2.55;;
36099;SDS011;75757;51.116;17.008;2024-01-15T16:09:16;9.50;;;2.53;;
36099;SDS011;75757;51.116;17.008;2024-01-15T16:11:42;6.35;;;2.38;;
36099;SDS011;75757;51.116;17.008;2024-01-15T16:14:11;10.90;;;2.20;;
36099;SDS011;75757;51.116;17.008;2024-01-15T16:16:37;10.52;;;2.38;;
36099;SDS011;75757;51.116;17.008;2024-01-15T16:19:03;7.88;;;2.38;;
36099;SDS011;75757;51.116;17.008;2024-01-15T16:21:29;8.20;;;2.13;;
36099;SDS011;75757;51.116;17.008;2024-01-15T16:23:55;11.52;;;2.75;;
36099;SDS011;75757;51.116;17.008;2024-01-15T16:26:21;11.93;;;2.53;;
36099;SDS011;75757;51.116;17.008;2024-01-15T16:28:47;6.00;;;2.33;;
36099;SDS011;75757;51.116;17.008;2024-01-15T16:31:13;13.85;;;2.03;;
36099;SDS011;75757;51.116;17.008;2024-01-15T16:33:39;7.13;;;2.03;;
36099;SDS011;75757;51.116;17.008;2024-01-15T16:36:06;10.70;;;2.45;;
36099;SDS011;75757;51.116;17.008;2024-01-15T16:38:32;6.47;;;2.38;;
36099;SDS011;75757;51.116;17.008;2024-01-15T16:40:58;7.97;;;2.03;;
36099;SDS011;75757;51.116;17.008;2024-01-15T16:43:24;11.77;;;2.53;;
36099;SDS011;75757;51.116;17.008;2024-01-15T16:45:52;10.32;;;2.20;;
36099;SDS011;75757;51.116;17.008;2024-01-15T16:48:18;8.27;;;2.60;;
36099;SDS011;75757;51.116;17.008;2024-01-15T16:50:44;5.68;;;2.20;;
36099;SDS011;75757;51.116;17.008;2024-01-15T16:53:10;14.07;;;2.78;;
36099;SDS011;75757;51.116;17.008;2024-01-15T16:55:36;17.58;;;2.47;;
36099;SDS011;75757;51.116;17.008;2024-01-15T16:58:01;19.95;;;2.63;;
36099;SDS011;75757;51.116;17.008;2024-01-15T17:00:28;20.33;;;3.35;;
36099;SDS011;75757;51.116;17.008;2024-01-15T17:02:54;12.82;;;2.67;;
36099;SDS011;75757;51.116;17.008;2024-01-15T17:05:23;14.38;;;2.78;;
36099;SDS011;75757;51.116;17.008;2024-01-15T17:07:49;11.57;;;2.58;;
36099;SDS011;75757;51.116;17.008;2024-01-15T17:10:15;13.60;;;2.53;;
36099;SDS011;75757;51.116;17.008;2024-01-15T17:12:41;15.98;;;2.80;;
36099;SDS011;75757;51.116;17.008;2024-01-15T17:15:07;12.82;;;2.80;;
36099;SDS011;75757;51.116;17.008;2024-01-15T17:17:33;20.83;;;2.78;;
36099;SDS011;75757;51.116;17.008;2024-01-15T17:19:59;18.92;;;3.85;;
36099;SDS011;75757;51.116;17.008;2024-01-15T17:22:25;20.08;;;2.20;;
36099;SDS011;75757;51.116;17.008;2024-01-15T17:24:51;19.48;;;3.10;;
36099;SDS011;75757;51.116;17.008;2024-01-15T17:27:17;21.80;;;3.17;;
36099;SDS011;75757;51.116;17.008;2024-01-15T17:29:42;18.58;;;3.03;;
36099;SDS011;75757;51.116;17.008;2024-01-15T17:32:08;21.27;;;3.45;;
36099;SDS011;75757;51.116;17.008;2024-01-15T17:34:34;15.07;;;2.80;;
36099;SDS011;75757;51.116;17.008;2024-01-15T17:37:00;16.60;;;2.85;;
36099;SDS011;75757;51.116;17.008;2024-01-15T17:39:29;9.82;;;2.53;;
36099;SDS011;75757;51.116;17.008;2024-01-15T17:41:56;19.40;;;3.17;;
36099;SDS011;75757;51.116;17.008;2024-01-15T17:44:23;11.45;;;2.88;;
36099;SDS011;75757;51.116;17.008;2024-01-15T17:46:49;14.82;;;2.50;;
36099;SDS011;75757;51.116;17.008;2024-01-15T17:49:15;16.83;;;2.70;;
36099;SDS011;75757;51.116;17.008;2024-01-15T17:51:41;14.30;;;2.58;;
36099;SDS011;75757;51.116;17.008;2024-01-15T17:54:07;6.43;;;2.63;;
36099;SDS011;75757;51.116;17.008;2024-01-15T17:56:34;10.65;;;2.80;;
36099;SDS011;75757;51.116;17.008;2024-01-15T17:59:00;16.42;;;4.03;;
36099;SDS011;75757;51.116;17.008;2024-01-15T18:01:25;16.00;;;3.28;;
36099;SDS011;75757;51.116;17.008;2024-01-15T18:03:52;10.55;;;2.50;;
36099;SDS011;75757;51.116;17.008;2024-01-15T18:06:18;10.48;;;2.35;;
36099;SDS011;75757;51.116;17.008;2024-01-15T18:08:44;10.10;;;2.58;;
36099;SDS011;75757;51.116;17.008;2024-01-15T18:11:16;7.95;;;2.45;;
36099;SDS011;75757;51.116;17.008;2024-01-15T18:13:42;12.70;;;2.50;;
36099;SDS011;75757;51.116;17.008;2024-01-15T18:16:08;8.07;;;1.95;;
36099;SDS011;75757;51.116;17.008;2024-01-15T18:18:34;12.25;;;2.83;;
36099;SDS011;75757;51.116;17.008;2024-01-15T18:21:00;12.68;;;3.03;;
36099;SDS011;75757;51.116;17.008;2024-01-15T18:23:28;9.75;;;2.75;;
36099;SDS011;75757;51.116;17.008;2024-01-15T18:25:54;7.50;;;2.42;;
36099;SDS011;75757;51.116;17.008;2024-01-15T18:28:20;11.80;;;2.38;;
36099;SDS011;75757;51.116;17.008;2024-01-15T18:30:46;7.90;;;2.20;;
36099;SDS011;75757;51.116;17.008;2024-01-15T18:33:12;8.60;;;2.15;;
36099;SDS011;75757;51.116;17.008;2024-01-15T18:35:38;11.73;;;2.50;;
36099;SDS011;75757;51.116;17.008;2024-01-15T18:38:06;7.75;;;2.53;;
36099;SDS011;75757;51.116;17.008;2024-01-15T18:40:32;6.05;;;1.98;;
36099;SDS011;75757;51.116;17.008;2024-01-15T18:43:01;4.57;;;2.20;;
36099;SDS011;75757;51.116;17.008;2024-01-15T18:45:27;8.23;;;2.38;;
36099;SDS011;75757;51.116;17.008;2024-01-15T18:47:53;7.80;;;2.40;;
36099;SDS011;75757;51.116;17.008;2024-01-15T18:50:19;7.75;;;2.55;;
36099;SDS011;75757;51.116;17.008;2024-01-15T18:52:45;9.68;;;2.50;;
36099;SDS011;75757;51.116;17.008;2024-01-15T18:55:11;8.27;;;2.15;;
36099;SDS011;75757;51.116;17.008;2024-01-15T18:57:41;6.85;;;1.90;;
36099;SDS011;75757;51.116;17.008;2024-01-15T19:00:07;8.83;;;2.30;;
36099;SDS011;75757;51.116;17.008;2024-01-15T19:02:35;8.57;;;2.10;;
36099;SDS011;75757;51.116;17.008;2024-01-15T19:05:01;3.88;;;2.13;;
36099;SDS011;75757;51.116;17.008;2024-01-15T19:07:27;6.35;;;2.10;;
36099;SDS011;75757;51.116;17.008;2024-01-15T19:09:53;8.32;;;2.28;;
36099;SDS011;75757;51.116;17.008;2024-01-15T19:12:19;6.05;;;1.90;;
36099;SDS011;75757;51.116;17.008;2024-01-15T19:14:46;4.38;;;1.92;;
36099;SDS011;75757;51.116;17.008;2024-01-15T19:17:11;5.07;;;2.00;;
36099;SDS011;75757;51.116;17.008;2024-01-15T19:19:37;8.65;;;2.20;;
36099;SDS011;75757;51.116;17.008;2024-01-15T19:22:03;7.10;;;2.58;;
36099;SDS011;75757;51.116;17.008;2024-01-15T19:24:29;11.88;;;2.33;;
36099;SDS011;75757;51.116;17.008;2024-01-15T19:26:55;9.45;;;2.40;;
36099;SDS011;75757;51.116;17.008;2024-01-15T19:29:22;11.05;;;2.15;;
36099;SDS011;75757;51.116;17.008;2024-01-15T19:31:48;9.68;;;2.65;;
36099;SDS011;75757;51.116;17.008;2024-01-15T19:34:14;11.07;;;2.20;;
36099;SDS011;75757;51.116;17.008;2024-01-15T19:36:40;14.73;;;2.55;;
36099;SDS011;75757;51.116;17.008;2024-01-15T19:39:06;9.45;;;2.05;;
36099;SDS011;75757;51.116;17.008;2024-01-15T19:41:34;10.13;;;2.38;;
36099;SDS011;75757;51.116;17.008;2024-01-15T19:44:00;19.65;;;2.50;;
36099;SDS011;75757;51.116;17.008;2024-01-15T19:46:26;10.43;;;2.47;;
36099;SDS011;75757;51.116;17.008;2024-01-15T19:48:52;12.00;;;2.15;;
36099;SDS011;75757;51.116;17.008;2024-01-15T19:51:19;9.15;;;2.45;;
36099;SDS011;75757;51.116;17.008;2024-01-15T19:53:45;6.35;;;2.20;;
36099;SDS011;75757;51.116;17.008;2024-01-15T19:56:11;16.38;;;2.45;;
36099;SDS011;75757;51.116;17.008;2024-01-15T19:58:42;8.93;;;1.98;;
36099;SDS011;75757;51.116;17.008;2024-01-15T20:01:08;11.55;;;2.83;;
36099;SDS011;75757;51.116;17.008;2024-01-15T20:03:34;9.57;;;2.03;;
36099;SDS011;75757;51.116;17.008;2024-01-15T20:06:00;11.93;;;2.30;;
36099;SDS011;75757;51.116;17.008;2024-01-15T20:08:28;10.27;;;2.00;;
36099;SDS011;75757;51.116;17.008;2024-01-15T20:10:54;6.95;;;2.15;;
36099;SDS011;75757;51.116;17.008;2024-01-15T20:13:23;8.52;;;2.03;;
36099;SDS011;75757;51.116;17.008;2024-01-15T20:15:49;11.75;;;2.45;;
36099;SDS011;75757;51.116;17.008;2024-01-15T20:18:16;7.38;;;2.03;;
36099;SDS011;75757;51.116;17.008;2024-01-15T20:20:42;12.23;;;2.35;;
36099;SDS011;75757;51.116;17.008;2024-01-15T20:23:08;5.68;;;1.85;;
36099;SDS011;75757;51.116;17.008;2024-01-15T20:25:34;9.05;;;2.15;;
36099;SDS011;75757;51.116;17.008;2024-01-15T20:28:00;8.57;;;2.53;;
36099;SDS011;75757;51.116;17.008;2024-01-15T20:30:26;5.70;;;2.20;;
36099;SDS011;75757;51.116;17.008;2024-01-15T20:32:52;6.95;;;1.98;;
36099;SDS011;75757;51.116;17.008;2024-01-15T20:35:18;5.88;;;2.38;;
36099;SDS011;75757;51.116;17.008;2024-01-15T20:37:44;10.10;;;2.08;;
36099;SDS011;75757;51.116;17.008;2024-01-15T20:40:10;8.43;;;2.40;;
36099;SDS011;75757;51.116;17.008;2024-01-15T20:42:36;7.07;;;2.10;;
36099;SDS011;75757;51.116;17.008;2024-01-15T20:45:02;13.20;;;2.25;;
36099;SDS011;75757;51.116;17.008;2024-01-15T20:47:28;12.00;;;3.15;;
36099;SDS011;75757;51.116;17.008;2024-01-15T20:49:56;11.32;;;2.35;;
36099;SDS011;75757;51.116;17.008;2024-01-15T20:52:22;12.43;;;2.78;;
36099;SDS011;75757;51.116;17.008;2024-01-15T20:54:48;13.57;;;2.80;;
36099;SDS011;75757;51.116;17.008;2024-01-15T20:57:14;9.57;;;2.42;;
36099;SDS011;75757;51.116;17.008;2024-01-15T20:59:40;7.88;;;2.40;;
36099;SDS011;75757;51.116;17.008;2024-01-15T21:02:06;10.35;;;2.60;;
36099;SDS011;75757;51.116;17.008;2024-01-15T21:04:32;10.50;;;2.30;;
36099;SDS011;75757;51.116;17.008;2024-01-15T21:06:58;10.50;;;2.20;;
36099;SDS011;75757;51.116;17.008;2024-01-15T21:09:24;11.70;;;2.80;;
36099;SDS011;75757;51.116;17.008;2024-01-15T21:11:53;12.57;;;2.50;;
36099;SDS011;75757;51.116;17.008;2024-01-15T21:14:19;12.85;;;2.83;;
36099;SDS011;75757;51.116;17.008;2024-01-15T21:16:45;14.07;;;3.20;;
36099;SDS011;75757;51.116;17.008;2024-01-15T21:19:11;10.35;;;3.17;;
36099;SDS011;75757;51.116;17.008;2024-01-15T21:21:37;8.82;;;2.97;;
36099;SDS011;75757;51.116;17.008;2024-01-15T21:24:03;9.02;;;2.83;;
36099;SDS011;75757;51.116;17.008;2024-01-15T21:26:29;14.45;;;3.38;;
36099;SDS011;75757;51.116;17.008;2024-01-15T21:28:55;10.23;;;3.35;;
36099;SDS011;75757;51.116;17.008;2024-01-15T21:31:21;13.05;;;3.63;;
36099;SDS011;75757;51.116;17.008;2024-01-15T21:33:47;14.75;;;3.50;;
36099;SDS011;75757;51.116;17.008;2024-01-15T21:36:14;14.38;;;4.05;;
36099;SDS011;75757;51.116;17.008;2024-01-15T21:38:40;13.80;;;3.40;;
36099;SDS011;75757;51.116;17.008;2024-01-15T21:41:06;10.13;;;3.35;;
36099;SDS011;75757;51.116;17.008;2024-01-15T21:43:32;13.75;;;3.25;;
36099;SDS011;75757;51.116;17.008;2024-01-15T21:45:58;12.93;;;3.80;;
36099;SDS011;75757;51.116;17.008;2024-01-15T21:48:24;10.98;;;3.28;;
36099;SDS011;75757;51.116;17.008;2024-01-15T21:50:49;11.93;;;3.40;;
36099;SDS011;75757;51.116;17.008;2024-01-15T21:53:17;11.13;;;3.30;;
36099;SDS011;75757;51.116;17.008;2024-01-15T21:55:43;10.13;;;3.05;;
36099;SDS011;75757;51.116;17.008;2024-01-15T21:58:09;12.43;;;4.15;;
36099;SDS011;75757;51.116;17.008;2024-01-15T22:00:35;8.35;;;2.90;;
36099;SDS011;75757;51.116;17.008;2024-01-15T22:03:01;12.27;;;4.10;;
36099;SDS011;75757;51.116;17.008;2024-01-15T22:05:28;11.25;;;3.10;;
36099;SDS011;75757;51.116;17.008;2024-01-15T22:07:54;14.30;;;3.70;;
36099;SDS011;75757;51.116;17.008;2024-01-15T22:10:24;8.95;;;3.10;;
36099;SDS011;75757;51.116;17.008;2024-01-15T22:12:50;11.07;;;3.17;;
36099;SDS011;75757;51.116;17.008;2024-01-15T22:15:16;9.70;;;3.05;;
36099;SDS011;75757;51.116;17.008;2024-01-15T22:17:42;11.43;;;2.90;;
36099;SDS011;75757;51.116;17.008;2024-01-15T22:20:08;12.85;;;3.50;;
36099;SDS011;75757;51.116;17.008;2024-01-15T22:22:34;10.25;;;3.70;;
36099;SDS011;75757;51.116;17.008;2024-01-15T22:25:00;13.30;;;4.07;;
36099;SDS011;75757;51.116;17.008;2024-01-15T22:27:26;8.38;;;3.25;;
36099;SDS011;75757;51.116;17.008;2024-01-15T22:29:52;11.00;;;3.20;;
36099;SDS011;75757;51.116;17.008;2024-01-15T22:32:18;7.45;;;2.60;;
36099;SDS011;75757;51.116;17.008;2024-01-15T22:34:44;8.43;;;2.60;;
36099;SDS011;75757;51.116;17.008;2024-01-15T22:37:10;6.82;;;2.90;;
36099;SDS011;75757;51.116;17.008;2024-01-15T22:39:36;10.23;;;3.08;;
36099;SDS011;75757;51.116;17.008;2024-01-15T22:42:03;10.55;;;3.40;;
36099;SDS011;75757;51.116;17.008;2024-01-15T22:44:30;9.30;;;3.03;;
36099;SDS011;75757;51.116;17.008;2024-01-15T22:46:56;7.10;;;2.85;;
36099;SDS011;75757;51.116;17.008;2024-01-15T22:49:23;10.70;;;3.05;;
36099;SDS011;75757;51.116;17.008;2024-01-15T22:51:49;8.10;;;3.33;;
36099;SDS011;75757;51.116;17.008;2024-01-15T22:54:14;9.98;;;3.17;;
36099;SDS011;75757;51.116;17.008;2024-01-15T22:56:40;10.93;;;2.90;;
36099;SDS011;75757;51.116;17.008;2024-01-15T22:59:08;7.03;;;3.00;;
36099;SDS011;75757;51.116;17.008;2024-01-15T23:01:34;7.47;;;2.92;;
36099;SDS011;75757;51.116;17.008;2024-01-15T23:03:59;10.70;;;3.15;;
36099;SDS011;75757;51.116;17.008;2024-01-15T23:06:25;8.18;;;2.63;;
36099;SDS011;75757;51.116;17.008;2024-01-15T23:08:52;14.05;;;3.05;;
36099;SDS011;75757;51.116;17.008;2024-01-15T23:11:18;7.88;;;2.80;;
36099;SDS011;75757;51.116;17.008;2024-01-15T23:13:44;11.20;;;2.88;;
36099;SDS011;75757;51.116;17.008;2024-01-15T23:16:10;8.43;;;2.97;;
36099;SDS011;75757;51.116;17.008;2024-01-15T23:18:48;9.13;;;3.00;;
36099;SDS011;75757;51.116;17.008;2024-01-15T23:21:15;7.97;;;2.92;;
36099;SDS011;75757;51.116;17.008;2024-01-15T23:23:42;5.88;;;2.17;;
36099;SDS011;75757;51.116;17.008;2024-01-15T23:26:08;8.00;;;2.63;;
36099;SDS011;75757;51.116;17.008;2024-01-15T23:28:34;7.10;;;2.63;;
36099;SDS011;75757;51.116;17.008;2024-01-15T23:31:00;7.30;;;2.75;;
36099;SDS011;75757;51.116;17.008;2024-01-15T23:33:26;9.73;;;2.60;;
36099;SDS011;75757;51.116;17.008;2024-01-15T23:35:52;9.02;;;2.22;;
36099;SDS011;75757;51.116;17.008;2024-01-15T23:38:18;8.27;;;2.80;;
36099;SDS011;75757;51.116;17.008;2024-01-15T23:40:45;4.90;;;2.22;;
36099;SDS011;75757;51.116;17.008;2024-01-15T23:43:11;11.85;;;2.47;;
36099;SDS011;75757;51.116;17.008;2024-01-15T23:45:44;8.68;;;2.72;;
36099;SDS011;75757;51.116;17.008;2024-01-15T23:48:10;7.65;;;2.83;;
36099;SDS011;75757;51.116;17.008;2024-01-15T23:50:36;9.77;;;2.70;;
36099;SDS011;75757;51.116;17.008;2024-01-15T23:53:02;15.40;;;5.35;;
36099;SDS011;75757;51.116;17.008;2024-01-15T23:55:27;13.70;;;4.15;;
36099;SDS011;75757;51.116;17.008;2024-01-15T23:57:53;11.80;;;3.90;;
